createdAt,value
2023-05-24T00:02:45.378Z,3.10
2023-05-24T00:07:47.272Z,2.40
2023-05-24T00:12:48.979Z,2.90
2023-05-24T00:17:50.934Z,2.67
2023-05-24T00:22:52.650Z,3.00
2023-05-24T00:27:54.411Z,3.03
2023-05-24T00:32:56.220Z,2.88
2023-05-24T00:37:58.163Z,2.65
2023-05-24T00:42:59.942Z,2.20
2023-05-24T00:48:02.082Z,2.50
2023-05-24T00:53:04.624Z,2.63
2023-05-24T00:58:06.491Z,2.75
2023-05-24T01:03:08.704Z,2.70
2023-05-24T01:08:22.858Z,2.90
2023-05-24T01:13:31.441Z,3.35
2023-05-24T01:18:45.998Z,2.63
2023-05-24T01:24:12.923Z,2.78
2023-05-24T01:29:16.231Z,3.20
2023-05-24T01:34:18.016Z,2.22
2023-05-24T01:39:21.669Z,2.15
2023-05-24T01:44:34.633Z,2.38
2023-05-24T01:49:46.568Z,2.17
2023-05-24T01:54:54.106Z,2.13
2023-05-24T01:59:57.377Z,2.67
2023-05-24T02:04:59.118Z,2.22
2023-05-24T02:10:00.893Z,2.10
2023-05-24T02:15:02.746Z,2.13
2023-05-24T02:20:04.872Z,2.35
2023-05-24T02:25:07.974Z,2.40
2023-05-24T02:30:10.672Z,2.63
2023-05-24T02:35:12.783Z,2.50
2023-05-24T02:40:14.565Z,2.60
2023-05-24T02:45:16.284Z,2.33
2023-05-24T02:50:18.116Z,3.05
2023-05-24T02:55:20.029Z,2.70
2023-05-24T03:00:21.916Z,2.50
2023-05-24T03:05:23.657Z,2.70
2023-05-24T03:10:25.522Z,2.38
2023-05-24T03:15:27.370Z,2.55
2023-05-24T03:20:29.167Z,2.80
2023-05-24T03:25:31.019Z,2.58
2023-05-24T03:30:33.461Z,2.63
2023-05-24T03:35:35.334Z,3.00
2023-05-24T03:40:37.148Z,3.33
2023-05-24T03:45:39.987Z,2.97
2023-05-24T03:50:42.110Z,2.70
2023-05-24T03:55:44.310Z,3.15
2023-05-24T04:00:46.216Z,3.20
2023-05-24T04:05:48.003Z,2.92
2023-05-24T04:10:49.745Z,3.13
2023-05-24T04:15:51.494Z,3.25
2023-05-24T04:20:53.260Z,3.42
2023-05-24T04:25:55.076Z,2.60
2023-05-24T04:30:57.729Z,3.25
2023-05-24T04:36:01.860Z,3.30
2023-05-24T04:41:03.752Z,3.58
2023-05-24T04:46:06.941Z,3.35
2023-05-24T04:51:10.671Z,3.72
2023-05-24T04:56:14.933Z,3.10
2023-05-24T05:01:17.740Z,3.45
2023-05-24T05:06:19.481Z,3.65
2023-05-24T05:11:21.305Z,2.85
2023-05-24T05:16:23.163Z,2.92
2023-05-24T05:21:25.028Z,3.28
2023-05-24T05:26:27.998Z,3.42
2023-05-24T05:31:31.087Z,3.65
2023-05-24T05:36:32.854Z,3.35
2023-05-24T05:41:35.761Z,3.28
2023-05-24T05:46:37.664Z,3.25
2023-05-24T05:51:39.448Z,3.72
2023-05-24T05:56:48.002Z,3.22
2023-05-24T06:01:50.404Z,3.13
2023-05-24T06:06:52.137Z,3.22
2023-05-24T06:11:53.901Z,3.13
2023-05-24T06:16:57.300Z,3.28
2023-05-24T06:22:00.201Z,2.95
2023-05-24T06:27:04.011Z,3.70
2023-05-24T06:32:07.153Z,3.22
2023-05-24T06:37:10.470Z,3.08
2023-05-24T06:42:12.249Z,2.78
2023-05-24T06:47:14.056Z,3.20
2023-05-24T06:52:16.194Z,3.17
2023-05-24T06:57:17.952Z,3.13
2023-05-24T07:02:24.107Z,3.30
2023-05-24T07:07:26.750Z,3.63
2023-05-24T07:12:28.531Z,3.13
2023-05-24T07:17:30.411Z,3.97
2023-05-24T07:22:32.196Z,3.25
2023-05-24T07:27:33.894Z,3.33
2023-05-24T07:32:35.789Z,3.33
2023-05-24T07:37:37.697Z,3.13
2023-05-24T07:42:39.606Z,3.47
2023-05-24T07:47:41.582Z,3.67
2023-05-24T07:52:43.720Z,3.28
2023-05-24T07:57:45.485Z,4.45
2023-05-24T08:02:47.360Z,4.15
2023-05-24T08:07:49.203Z,3.33
2023-05-24T08:12:54.672Z,3.58
2023-05-24T08:17:56.879Z,3.78
2023-05-24T08:22:58.882Z,3.85
2023-05-24T08:28:01.133Z,4.20
2023-05-24T08:33:03.269Z,3.70
2023-05-24T08:38:05.153Z,3.55
2023-05-24T08:43:11.949Z,4.03
2023-05-24T08:48:14.552Z,3.65
2023-05-24T08:53:16.878Z,3.67
2023-05-24T08:58:19.116Z,3.33
2023-05-24T09:03:21.809Z,3.22
2023-05-24T09:08:24.081Z,3.17
2023-05-24T09:13:27.870Z,3.40
2023-05-24T09:18:29.773Z,3.65
2023-05-24T09:23:32.144Z,3.78
2023-05-24T09:28:33.944Z,3.75
2023-05-24T09:33:36.044Z,3.50
2023-05-24T09:38:37.867Z,4.63
2023-05-24T09:43:50.018Z,4.03
2023-05-24T09:49:03.855Z,3.70
2023-05-24T09:54:05.989Z,3.75
2023-05-24T09:59:08.971Z,3.92
2023-05-24T10:04:10.801Z,4.03
2023-05-24T10:09:14.033Z,3.45
2023-05-24T10:14:18.048Z,3.88
2023-05-24T10:19:19.900Z,3.88
2023-05-24T10:24:27.513Z,4.03
2023-05-24T10:29:45.882Z,3.97
2023-05-24T10:34:48.983Z,3.60
2023-05-24T10:39:50.716Z,3.80
2023-05-24T10:44:52.810Z,3.78
2023-05-24T10:49:59.769Z,5.05
2023-05-24T10:55:05.155Z,4.03
2023-05-24T11:05:56.804Z,4.20
2023-05-24T11:11:23.102Z,3.63
2023-05-24T11:16:40.370Z,3.38
2023-05-24T11:21:48.045Z,3.60
2023-05-24T11:26:50.794Z,3.22
2023-05-24T11:31:55.285Z,3.22
2023-05-24T11:36:57.369Z,2.58
2023-05-24T11:42:00.025Z,2.60
2023-05-24T11:47:03.080Z,3.05
2023-05-24T11:52:05.001Z,5.07
2023-05-24T11:57:06.910Z,3.40
2023-05-24T12:02:11.480Z,3.05
2023-05-24T12:07:13.331Z,3.63
2023-05-24T12:12:15.891Z,3.47
2023-05-24T12:17:17.637Z,3.72
2023-05-24T12:22:19.565Z,3.55
2023-05-24T12:27:27.511Z,3.05
2023-05-24T12:32:29.438Z,3.85
2023-05-24T12:37:31.725Z,3.10
2023-05-24T12:42:33.603Z,3.50
2023-05-24T12:47:35.423Z,3.17
2023-05-24T12:52:37.196Z,3.35
2023-05-24T12:57:38.933Z,3.70
2023-05-24T13:02:40.824Z,3.10
2023-05-24T13:07:45.358Z,3.35
2023-05-24T13:12:47.249Z,2.97
2023-05-24T13:17:49.086Z,3.03
2023-05-24T13:22:51.281Z,3.90
2023-05-24T13:27:53.306Z,3.55
2023-05-24T13:32:56.862Z,3.25
2023-05-24T13:37:58.778Z,3.58
2023-05-24T13:43:00.686Z,3.65
2023-05-24T13:48:05.995Z,3.67
2023-05-24T13:53:08.189Z,4.10
2023-05-24T13:58:10.522Z,3.70
2023-05-24T14:03:13.077Z,3.97
2023-05-24T14:08:14.914Z,3.30
2023-05-24T14:13:45.375Z,3.63
2023-05-24T14:18:38.646Z,3.00
2023-05-24T14:23:40.357Z,3.10
2023-05-24T14:28:42.050Z,2.53
2023-05-24T14:33:43.827Z,2.83
2023-05-24T14:38:45.588Z,2.58
2023-05-24T14:43:47.322Z,1.92
2023-05-24T14:48:49.033Z,1.77
2023-05-24T14:53:51.804Z,2.10
2023-05-24T14:58:55.131Z,2.30
2023-05-24T15:04:01.172Z,2.30
2023-05-24T15:09:04.034Z,2.17
2023-05-24T15:14:06.236Z,1.80
2023-05-24T15:19:10.139Z,1.80
2023-05-24T15:24:13.462Z,2.13
2023-05-24T15:29:16.807Z,2.20
2023-05-24T15:34:23.662Z,1.77
2023-05-24T15:39:26.112Z,2.40
2023-05-24T15:44:27.932Z,2.40
2023-05-24T15:49:29.746Z,2.20
2023-05-24T15:54:32.104Z,2.33
2023-05-24T15:59:36.975Z,2.25
2023-05-24T16:04:44.591Z,2.22
2023-05-24T16:09:46.913Z,2.47
2023-05-24T16:14:48.803Z,2.35
2023-05-24T16:19:52.289Z,2.60
2023-05-24T16:24:54.229Z,5.65
2023-05-24T16:29:55.949Z,4.25
2023-05-24T16:34:57.684Z,4.90
2023-05-24T16:40:00.515Z,3.38
2023-05-24T16:45:02.731Z,3.63
2023-05-24T16:50:04.853Z,3.08
2023-05-24T16:55:06.941Z,2.42
2023-05-24T17:00:09.761Z,2.20
2023-05-24T17:05:11.666Z,2.33
2023-05-24T17:10:13.413Z,2.75
2023-05-24T17:15:15.742Z,2.45
2023-05-24T17:20:17.552Z,2.13
2023-05-24T17:25:19.371Z,2.40
2023-05-24T17:30:21.130Z,2.50
2023-05-24T17:35:23.248Z,2.35
2023-05-24T17:40:25.527Z,2.30
2023-05-24T17:45:27.336Z,2.70
2023-05-24T17:50:29.068Z,2.67
2023-05-24T17:55:31.044Z,2.95
2023-05-24T18:00:32.748Z,2.63
2023-05-24T18:05:34.508Z,2.85
2023-05-24T18:10:36.287Z,3.92
2023-05-24T18:15:38.041Z,3.13
2023-05-24T18:20:39.863Z,3.60
2023-05-24T18:25:43.721Z,4.03
2023-05-24T18:30:46.010Z,3.63
2023-05-24T18:35:47.750Z,7.38
2023-05-24T18:40:49.504Z,3.13
2023-05-24T18:45:51.277Z,3.50
2023-05-24T18:50:53.846Z,6.22
2023-05-24T18:55:55.837Z,4.15
2023-05-24T19:00:57.764Z,3.50
2023-05-24T19:05:59.543Z,3.05
2023-05-24T19:11:01.788Z,3.70
2023-05-24T19:16:03.631Z,4.68
2023-05-24T19:21:05.399Z,3.72
2023-05-24T19:26:07.223Z,3.60
2023-05-24T19:31:08.958Z,3.75
2023-05-24T19:36:10.890Z,3.50
2023-05-24T19:41:12.658Z,4.03
2023-05-24T19:46:14.775Z,3.60
2023-05-24T19:51:17.030Z,3.92
2023-05-24T19:56:19.464Z,4.57
2023-05-24T20:01:21.293Z,4.80
2023-05-24T20:06:23.079Z,4.38
2023-05-24T20:11:24.822Z,4.47
2023-05-24T20:16:27.408Z,4.38
2023-05-24T20:21:29.203Z,4.57
2023-05-24T20:26:33.107Z,4.72
2023-05-24T20:31:34.892Z,4.00
2023-05-24T20:36:36.837Z,4.50
2023-05-24T20:41:38.623Z,4.30
2023-05-24T20:46:41.243Z,5.05
2023-05-24T20:51:42.980Z,4.47
2023-05-24T20:56:44.708Z,4.93
2023-05-24T21:01:46.506Z,4.90
2023-05-24T21:06:48.300Z,5.05
2023-05-24T21:11:50.030Z,5.38
2023-05-24T21:16:51.772Z,5.13
2023-05-24T21:21:53.520Z,5.07
2023-05-24T21:26:55.290Z,5.30
2023-05-24T21:31:57.079Z,5.03
2023-05-24T21:36:58.836Z,5.40
2023-05-24T21:42:02.102Z,4.75
2023-05-24T21:47:04.162Z,5.10
2023-05-24T21:52:05.917Z,5.20
2023-05-24T21:57:07.654Z,5.32
2023-05-24T22:02:09.435Z,5.07
2023-05-24T22:07:11.219Z,4.55
2023-05-24T22:12:13.095Z,4.75
2023-05-24T22:17:16.351Z,4.55
2023-05-24T22:22:19.530Z,4.72
2023-05-24T22:27:21.383Z,4.50
2023-05-24T22:32:23.202Z,5.15
2023-05-24T22:37:25.004Z,4.88
2023-05-24T22:42:26.731Z,5.07
2023-05-24T22:47:28.822Z,5.22
2023-05-24T22:52:33.642Z,5.15
2023-05-24T22:57:35.475Z,4.95
2023-05-24T23:02:37.778Z,4.90
2023-05-24T23:07:39.916Z,4.90
2023-05-24T23:12:42.130Z,4.63
2023-05-24T23:17:44.424Z,5.15
2023-05-24T23:22:46.730Z,4.93
2023-05-24T23:27:48.463Z,5.15
2023-05-24T23:32:50.452Z,4.82
2023-05-24T23:37:53.760Z,5.57
2023-05-24T23:42:55.951Z,5.22
2023-05-24T23:47:58.269Z,5.43
2023-05-24T23:53:00.033Z,5.38
2023-05-24T23:58:01.741Z,5.30
